sensor_id;sensor_type;location;lat;lon;timestamp;P1;durP1;ratioP1;P2;durP2;ratioP2
18711;SDS011;9485;49.386;8.674;2022-12-07T00:00:18;7.47;;;5.43;;
18711;SDS011;9485;49.386;8.674;2022-12-07T00:05:40;6.43;;;5.00;;
18711;SDS011;9485;49.386;8.674;2022-12-07T00:11:02;7.03;;;5.23;;
18711;SDS011;9485;49.386;8.674;2022-12-07T00:16:24;7.73;;;5.63;;
18711;SDS011;9485;49.386;8.674;2022-12-07T00:21:48;8.97;;;5.97;;
18711;SDS011;9485;49.386;8.674;2022-12-07T00:27:10;6.87;;;5.67;;
18711;SDS011;9485;49.386;8.674;2022-12-07T00:32:31;7.33;;;5.80;;
18711;SDS011;9485;49.386;8.674;2022-12-07T00:37:51;7.73;;;5.73;;
18711;SDS011;9485;49.386;8.674;2022-12-07T00:43:13;8.73;;;5.37;;
18711;SDS011;9485;49.386;8.674;2022-12-07T00:48:34;7.47;;;5.33;;
18711;SDS011;9485;49.386;8.674;2022-12-07T00:53:55;9.83;;;5.27;;
18711;SDS011;9485;49.386;8.674;2022-12-07T00:59:17;7.67;;;5.83;;
18711;SDS011;9485;49.386;8.674;2022-12-07T01:04:37;7.27;;;5.43;;
18711;SDS011;9485;49.386;8.674;2022-12-07T01:09:57;7.57;;;5.50;;
18711;SDS011;9485;49.386;8.674;2022-12-07T01:15:19;7.60;;;4.97;;
18711;SDS011;9485;49.386;8.674;2022-12-07T01:20:40;7.93;;;5.33;;
18711;SDS011;9485;49.386;8.674;2022-12-07T01:26:01;7.23;;;5.10;;
18711;SDS011;9485;49.386;8.674;2022-12-07T01:31:26;6.70;;;5.17;;
18711;SDS011;9485;49.386;8.674;2022-12-07T01:36:48;6.70;;;4.70;;
18711;SDS011;9485;49.386;8.674;2022-12-07T01:42:09;7.50;;;5.10;;
18711;SDS011;9485;49.386;8.674;2022-12-07T01:47:31;6.90;;;4.63;;
18711;SDS011;9485;49.386;8.674;2022-12-07T01:52:52;6.10;;;5.20;;
18711;SDS011;9485;49.386;8.674;2022-12-07T01:58:17;6.63;;;5.07;;
18711;SDS011;9485;49.386;8.674;2022-12-07T02:03:40;6.67;;;5.50;;
18711;SDS011;9485;49.386;8.674;2022-12-07T02:09:03;8.10;;;5.80;;
18711;SDS011;9485;49.386;8.674;2022-12-07T02:14:24;7.27;;;5.37;;
18711;SDS011;9485;49.386;8.674;2022-12-07T02:25:42;6.60;;;4.97;;
18711;SDS011;9485;49.386;8.674;2022-12-07T02:31:30;6.10;;;5.17;;
18711;SDS011;9485;49.386;8.674;2022-12-07T02:36:52;7.50;;;5.07;;
18711;SDS011;9485;49.386;8.674;2022-12-07T02:42:23;5.50;;;4.73;;
18711;SDS011;9485;49.386;8.674;2022-12-07T02:47:53;6.53;;;4.93;;
18711;SDS011;9485;49.386;8.674;2022-12-07T02:53:31;10.70;;;6.90;;
18711;SDS011;9485;49.386;8.674;2022-12-07T02:58:58;9.70;;;6.13;;
18711;SDS011;9485;49.386;8.674;2022-12-07T03:04:38;8.27;;;5.80;;
18711;SDS011;9485;49.386;8.674;2022-12-07T03:10:11;6.83;;;5.57;;
18711;SDS011;9485;49.386;8.674;2022-12-07T03:15:40;8.87;;;5.87;;
18711;SDS011;9485;49.386;8.674;2022-12-07T03:21:12;8.60;;;5.73;;
18711;SDS011;9485;49.386;8.674;2022-12-07T03:26:39;9.17;;;5.57;;
18711;SDS011;9485;49.386;8.674;2022-12-07T03:32:06;8.40;;;6.03;;
18711;SDS011;9485;49.386;8.674;2022-12-07T03:37:37;7.57;;;6.13;;
18711;SDS011;9485;49.386;8.674;2022-12-07T03:43:05;9.03;;;6.10;;
18711;SDS011;9485;49.386;8.674;2022-12-07T03:48:28;7.10;;;6.00;;
18711;SDS011;9485;49.386;8.674;2022-12-07T03:53:58;8.43;;;6.10;;
18711;SDS011;9485;49.386;8.674;2022-12-07T03:59:29;8.17;;;6.03;;
18711;SDS011;9485;49.386;8.674;2022-12-07T04:04:50;9.37;;;5.93;;
18711;SDS011;9485;49.386;8.674;2022-12-07T04:10:13;8.60;;;6.07;;
18711;SDS011;9485;49.386;8.674;2022-12-07T04:15:34;9.73;;;6.53;;
18711;SDS011;9485;49.386;8.674;2022-12-07T04:20:54;9.37;;;5.90;;
18711;SDS011;9485;49.386;8.674;2022-12-07T04:26:16;8.23;;;6.23;;
18711;SDS011;9485;49.386;8.674;2022-12-07T04:31:37;8.90;;;6.27;;
18711;SDS011;9485;49.386;8.674;2022-12-07T04:36:58;9.33;;;6.60;;
18711;SDS011;9485;49.386;8.674;2022-12-07T04:42:20;7.60;;;6.07;;
18711;SDS011;9485;49.386;8.674;2022-12-07T04:47:40;8.97;;;6.20;;
18711;SDS011;9485;49.386;8.674;2022-12-07T04:53:01;7.77;;;6.27;;
18711;SDS011;9485;49.386;8.674;2022-12-07T04:58:23;8.17;;;5.83;;
18711;SDS011;9485;49.386;8.674;2022-12-07T05:03:44;6.53;;;5.40;;
18711;SDS011;9485;49.386;8.674;2022-12-07T05:09:05;9.47;;;6.43;;
18711;SDS011;9485;49.386;8.674;2022-12-07T05:14:26;7.67;;;5.90;;
18711;SDS011;9485;49.386;8.674;2022-12-07T05:19:47;7.00;;;5.23;;
18711;SDS011;9485;49.386;8.674;2022-12-07T05:25:07;7.67;;;5.40;;
18711;SDS011;9485;49.386;8.674;2022-12-07T05:30:30;7.77;;;5.30;;
18711;SDS011;9485;49.386;8.674;2022-12-07T05:35:52;8.87;;;6.10;;
18711;SDS011;9485;49.386;8.674;2022-12-07T05:41:14;8.57;;;6.90;;
18711;SDS011;9485;49.386;8.674;2022-12-07T05:46:57;9.93;;;6.97;;
18711;SDS011;9485;49.386;8.674;2022-12-07T05:52:17;8.60;;;6.67;;
18711;SDS011;9485;49.386;8.674;2022-12-07T05:57:38;9.77;;;6.57;;
18711;SDS011;9485;49.386;8.674;2022-12-07T06:03:00;8.43;;;6.40;;
18711;SDS011;9485;49.386;8.674;2022-12-07T06:08:20;8.93;;;6.77;;
18711;SDS011;9485;49.386;8.674;2022-12-07T06:13:41;9.77;;;7.27;;
18711;SDS011;9485;49.386;8.674;2022-12-07T06:19:03;11.17;;;6.87;;
18711;SDS011;9485;49.386;8.674;2022-12-07T06:24:24;7.50;;;5.73;;
18711;SDS011;9485;49.386;8.674;2022-12-07T06:29:44;9.07;;;6.70;;
18711;SDS011;9485;49.386;8.674;2022-12-07T06:35:07;10.77;;;6.70;;
18711;SDS011;9485;49.386;8.674;2022-12-07T06:40:28;12.30;;;7.83;;
18711;SDS011;9485;49.386;8.674;2022-12-07T06:45:48;9.23;;;6.73;;
18711;SDS011;9485;49.386;8.674;2022-12-07T06:51:11;10.80;;;7.50;;
18711;SDS011;9485;49.386;8.674;2022-12-07T06:56:31;12.50;;;7.87;;
18711;SDS011;9485;49.386;8.674;2022-12-07T07:01:52;10.57;;;7.40;;
18711;SDS011;9485;49.386;8.674;2022-12-07T07:07:13;10.83;;;7.67;;
18711;SDS011;9485;49.386;8.674;2022-12-07T07:12:34;12.20;;;7.97;;
18711;SDS011;9485;49.386;8.674;2022-12-07T07:17:54;11.40;;;6.80;;
18711;SDS011;9485;49.386;8.674;2022-12-07T07:23:17;11.20;;;8.07;;
18711;SDS011;9485;49.386;8.674;2022-12-07T07:28:37;10.07;;;7.30;;
18711;SDS011;9485;49.386;8.674;2022-12-07T07:33:58;11.20;;;7.67;;
18711;SDS011;9485;49.386;8.674;2022-12-07T07:39:20;9.17;;;6.60;;
18711;SDS011;9485;49.386;8.674;2022-12-07T07:44:40;10.67;;;7.47;;
18711;SDS011;9485;49.386;8.674;2022-12-07T07:50:01;10.23;;;7.23;;
18711;SDS011;9485;49.386;8.674;2022-12-07T07:55:23;11.37;;;7.33;;
18711;SDS011;9485;49.386;8.674;2022-12-07T08:00:44;8.73;;;6.33;;
18711;SDS011;9485;49.386;8.674;2022-12-07T08:06:05;12.60;;;7.60;;
18711;SDS011;9485;49.386;8.674;2022-12-07T08:11:27;11.57;;;7.40;;
18711;SDS011;9485;49.386;8.674;2022-12-07T08:16:48;12.60;;;8.30;;
18711;SDS011;9485;49.386;8.674;2022-12-07T08:22:08;14.67;;;8.87;;
18711;SDS011;9485;49.386;8.674;2022-12-07T08:27:30;11.77;;;8.37;;
18711;SDS011;9485;49.386;8.674;2022-12-07T08:32:51;12.33;;;8.27;;
18711;SDS011;9485;49.386;8.674;2022-12-07T08:38:12;12.07;;;7.70;;
18711;SDS011;9485;49.386;8.674;2022-12-07T08:43:34;10.50;;;7.87;;
18711;SDS011;9485;49.386;8.674;2022-12-07T08:48:57;11.77;;;8.03;;
18711;SDS011;9485;49.386;8.674;2022-12-07T08:54:23;12.70;;;8.80;;
18711;SDS011;9485;49.386;8.674;2022-12-07T08:59:45;14.53;;;9.67;;
18711;SDS011;9485;49.386;8.674;2022-12-07T09:05:31;13.43;;;8.47;;
18711;SDS011;9485;49.386;8.674;2022-12-07T09:10:52;15.33;;;9.10;;
18711;SDS011;9485;49.386;8.674;2022-12-07T09:16:14;12.03;;;8.63;;
18711;SDS011;9485;49.386;8.674;2022-12-07T09:21:35;12.27;;;8.43;;
18711;SDS011;9485;49.386;8.674;2022-12-07T09:26:56;12.73;;;8.23;;
18711;SDS011;9485;49.386;8.674;2022-12-07T09:32:18;12.70;;;8.43;;
18711;SDS011;9485;49.386;8.674;2022-12-07T09:37:39;12.40;;;8.07;;
18711;SDS011;9485;49.386;8.674;2022-12-07T09:43:00;12.47;;;8.17;;
18711;SDS011;9485;49.386;8.674;2022-12-07T09:48:22;11.97;;;7.80;;
18711;SDS011;9485;49.386;8.674;2022-12-07T09:53:49;11.63;;;8.47;;
18711;SDS011;9485;49.386;8.674;2022-12-07T09:59:12;15.90;;;8.53;;
18711;SDS011;9485;49.386;8.674;2022-12-07T10:04:38;12.57;;;8.00;;
18711;SDS011;9485;49.386;8.674;2022-12-07T10:10:01;13.10;;;8.53;;
18711;SDS011;9485;49.386;8.674;2022-12-07T10:15:39;11.80;;;7.93;;
18711;SDS011;9485;49.386;8.674;2022-12-07T10:21:15;12.63;;;8.13;;
18711;SDS011;9485;49.386;8.674;2022-12-07T10:26:40;12.03;;;7.63;;
18711;SDS011;9485;49.386;8.674;2022-12-07T10:32:24;12.50;;;8.03;;
18711;SDS011;9485;49.386;8.674;2022-12-07T10:37:54;15.77;;;9.00;;
18711;SDS011;9485;49.386;8.674;2022-12-07T10:43:18;12.47;;;8.33;;
18711;SDS011;9485;49.386;8.674;2022-12-07T10:48:40;13.40;;;8.93;;
18711;SDS011;9485;49.386;8.674;2022-12-07T10:54:14;13.47;;;8.83;;
18711;SDS011;9485;49.386;8.674;2022-12-07T10:59:58;11.13;;;8.53;;
18711;SDS011;9485;49.386;8.674;2022-12-07T11:05:29;12.57;;;8.57;;
18711;SDS011;9485;49.386;8.674;2022-12-07T11:11:06;12.83;;;9.10;;
18711;SDS011;9485;49.386;8.674;2022-12-07T11:16:48;13.47;;;7.87;;
18711;SDS011;9485;49.386;8.674;2022-12-07T11:22:18;12.63;;;8.03;;
18711;SDS011;9485;49.386;8.674;2022-12-07T11:27:50;8.87;;;7.20;;
18711;SDS011;9485;49.386;8.674;2022-12-07T11:33:27;12.90;;;8.83;;
18711;SDS011;9485;49.386;8.674;2022-12-07T11:38:58;14.10;;;9.90;;
18711;SDS011;9485;49.386;8.674;2022-12-07T11:44:29;12.43;;;8.53;;
18711;SDS011;9485;49.386;8.674;2022-12-07T11:49:58;13.43;;;8.90;;
18711;SDS011;9485;49.386;8.674;2022-12-07T11:55:40;14.13;;;9.40;;
18711;SDS011;9485;49.386;8.674;2022-12-07T12:01:14;12.67;;;8.60;;
18711;SDS011;9485;49.386;8.674;2022-12-07T12:06:46;12.17;;;8.30;;
18711;SDS011;9485;49.386;8.674;2022-12-07T12:12:19;11.93;;;8.80;;
18711;SDS011;9485;49.386;8.674;2022-12-07T12:18:06;14.43;;;9.23;;
18711;SDS011;9485;49.386;8.674;2022-12-07T12:23:46;14.00;;;9.77;;
18711;SDS011;9485;49.386;8.674;2022-12-07T12:29:19;11.03;;;7.77;;
18711;SDS011;9485;49.386;8.674;2022-12-07T12:35:02;12.57;;;8.70;;
18711;SDS011;9485;49.386;8.674;2022-12-07T12:40:46;10.87;;;7.43;;
18711;SDS011;9485;49.386;8.674;2022-12-07T12:58:30;10.93;;;7.23;;
18711;SDS011;9485;49.386;8.674;2022-12-07T13:03:57;10.67;;;7.30;;
18711;SDS011;9485;49.386;8.674;2022-12-07T13:09:21;9.13;;;6.90;;
18711;SDS011;9485;49.386;8.674;2022-12-07T13:14:52;10.23;;;7.17;;
18711;SDS011;9485;49.386;8.674;2022-12-07T13:26:18;7.60;;;4.53;;
18711;SDS011;9485;49.386;8.674;2022-12-07T13:31:42;5.20;;;3.70;;
18711;SDS011;9485;49.386;8.674;2022-12-07T13:37:09;5.77;;;3.37;;
18711;SDS011;9485;49.386;8.674;2022-12-07T13:42:39;4.67;;;3.30;;
18711;SDS011;9485;49.386;8.674;2022-12-07T13:47:59;3.37;;;2.73;;
18711;SDS011;9485;49.386;8.674;2022-12-07T13:53:21;5.17;;;3.70;;
18711;SDS011;9485;49.386;8.674;2022-12-07T13:58:44;4.93;;;3.70;;
18711;SDS011;9485;49.386;8.674;2022-12-07T14:04:19;5.83;;;3.87;;
18711;SDS011;9485;49.386;8.674;2022-12-07T14:09:54;5.53;;;4.43;;
18711;SDS011;9485;49.386;8.674;2022-12-07T14:15:20;8.40;;;4.87;;
18711;SDS011;9485;49.386;8.674;2022-12-07T14:20:45;10.53;;;5.93;;
18711;SDS011;9485;49.386;8.674;2022-12-07T14:26:06;12.53;;;7.33;;
18711;SDS011;9485;49.386;8.674;2022-12-07T14:31:33;8.53;;;6.40;;
18711;SDS011;9485;49.386;8.674;2022-12-07T14:36:54;9.67;;;7.33;;
18711;SDS011;9485;49.386;8.674;2022-12-07T14:42:14;10.43;;;7.10;;
18711;SDS011;9485;49.386;8.674;2022-12-07T14:47:37;10.57;;;8.00;;
18711;SDS011;9485;49.386;8.674;2022-12-07T14:52:58;11.13;;;6.93;;
18711;SDS011;9485;49.386;8.674;2022-12-07T14:58:25;11.00;;;6.67;;
18711;SDS011;9485;49.386;8.674;2022-12-07T15:03:47;13.80;;;7.50;;
18711;SDS011;9485;49.386;8.674;2022-12-07T15:09:08;12.47;;;7.30;;
18711;SDS011;9485;49.386;8.674;2022-12-07T15:14:29;9.37;;;6.10;;
18711;SDS011;9485;49.386;8.674;2022-12-07T15:19:52;6.37;;;4.40;;
18711;SDS011;9485;49.386;8.674;2022-12-07T15:25:12;7.17;;;5.23;;
18711;SDS011;9485;49.386;8.674;2022-12-07T15:30:34;7.27;;;5.17;;
18711;SDS011;9485;49.386;8.674;2022-12-07T15:35:58;9.53;;;6.13;;
18711;SDS011;9485;49.386;8.674;2022-12-07T15:41:19;8.60;;;6.83;;
18711;SDS011;9485;49.386;8.674;2022-12-07T15:46:42;8.13;;;5.97;;
18711;SDS011;9485;49.386;8.674;2022-12-07T15:52:04;10.13;;;6.43;;
18711;SDS011;9485;49.386;8.674;2022-12-07T15:57:24;7.57;;;5.70;;
18711;SDS011;9485;49.386;8.674;2022-12-07T16:02:45;10.37;;;6.17;;
18711;SDS011;9485;49.386;8.674;2022-12-07T16:08:07;9.40;;;6.23;;
18711;SDS011;9485;49.386;8.674;2022-12-07T16:13:27;10.13;;;7.20;;
18711;SDS011;9485;49.386;8.674;2022-12-07T16:18:48;9.13;;;6.97;;
18711;SDS011;9485;49.386;8.674;2022-12-07T16:24:11;9.63;;;7.20;;
18711;SDS011;9485;49.386;8.674;2022-12-07T16:29:33;9.73;;;6.93;;
18711;SDS011;9485;49.386;8.674;2022-12-07T16:34:54;10.27;;;7.30;;
18711;SDS011;9485;49.386;8.674;2022-12-07T16:40:15;10.93;;;6.67;;
18711;SDS011;9485;49.386;8.674;2022-12-07T16:45:36;11.03;;;7.50;;
18711;SDS011;9485;49.386;8.674;2022-12-07T16:50:57;10.60;;;7.37;;
18711;SDS011;9485;49.386;8.674;2022-12-07T16:56:23;10.23;;;7.07;;
18711;SDS011;9485;49.386;8.674;2022-12-07T17:01:45;10.83;;;7.63;;
18711;SDS011;9485;49.386;8.674;2022-12-07T17:07:06;11.20;;;7.00;;
18711;SDS011;9485;49.386;8.674;2022-12-07T17:12:27;13.80;;;8.40;;
18711;SDS011;9485;49.386;8.674;2022-12-07T17:17:51;12.67;;;8.83;;
18711;SDS011;9485;49.386;8.674;2022-12-07T17:23:13;12.90;;;8.63;;
18711;SDS011;9485;49.386;8.674;2022-12-07T17:28:36;11.57;;;7.70;;
18711;SDS011;9485;49.386;8.674;2022-12-07T17:33:57;13.27;;;8.70;;
18711;SDS011;9485;49.386;8.674;2022-12-07T17:39:18;15.07;;;9.50;;
18711;SDS011;9485;49.386;8.674;2022-12-07T17:44:39;14.33;;;10.10;;
18711;SDS011;9485;49.386;8.674;2022-12-07T17:50:00;13.60;;;9.27;;
18711;SDS011;9485;49.386;8.674;2022-12-07T17:55:21;13.77;;;8.97;;
18711;SDS011;9485;49.386;8.674;2022-12-07T18:00:44;12.60;;;8.47;;
18711;SDS011;9485;49.386;8.674;2022-12-07T18:06:05;12.00;;;9.43;;
18711;SDS011;9485;49.386;8.674;2022-12-07T18:11:26;12.10;;;8.57;;
18711;SDS011;9485;49.386;8.674;2022-12-07T18:16:48;13.40;;;8.73;;
18711;SDS011;9485;49.386;8.674;2022-12-07T18:22:09;13.70;;;8.87;;
18711;SDS011;9485;49.386;8.674;2022-12-07T18:27:29;14.47;;;9.13;;
18711;SDS011;9485;49.386;8.674;2022-12-07T18:32:51;12.50;;;9.00;;
18711;SDS011;9485;49.386;8.674;2022-12-07T18:38:12;17.30;;;9.83;;
18711;SDS011;9485;49.386;8.674;2022-12-07T18:43:33;11.97;;;8.57;;
18711;SDS011;9485;49.386;8.674;2022-12-07T18:48:55;13.40;;;9.17;;
18711;SDS011;9485;49.386;8.674;2022-12-07T18:54:16;13.10;;;8.60;;
18711;SDS011;9485;49.386;8.674;2022-12-07T18:59:36;13.87;;;9.63;;
18711;SDS011;9485;49.386;8.674;2022-12-07T19:05:09;13.77;;;8.90;;
18711;SDS011;9485;49.386;8.674;2022-12-07T19:10:30;16.27;;;10.30;;
18711;SDS011;9485;49.386;8.674;2022-12-07T19:15:50;14.33;;;9.70;;
18711;SDS011;9485;49.386;8.674;2022-12-07T19:21:12;13.57;;;9.70;;
18711;SDS011;9485;49.386;8.674;2022-12-07T19:26:33;15.43;;;10.03;;
18711;SDS011;9485;49.386;8.674;2022-12-07T19:31:53;15.40;;;10.27;;
18711;SDS011;9485;49.386;8.674;2022-12-07T19:37:15;14.33;;;9.70;;
18711;SDS011;9485;49.386;8.674;2022-12-07T19:42:36;13.50;;;9.37;;
18711;SDS011;9485;49.386;8.674;2022-12-07T19:47:57;16.20;;;10.70;;
18711;SDS011;9485;49.386;8.674;2022-12-07T19:53:19;17.83;;;10.67;;
18711;SDS011;9485;49.386;8.674;2022-12-07T19:58:40;17.27;;;11.30;;
18711;SDS011;9485;49.386;8.674;2022-12-07T20:04:02;16.63;;;11.27;;
18711;SDS011;9485;49.386;8.674;2022-12-07T20:09:26;18.03;;;11.40;;
18711;SDS011;9485;49.386;8.674;2022-12-07T20:14:47;17.63;;;11.10;;
18711;SDS011;9485;49.386;8.674;2022-12-07T20:20:08;16.50;;;10.93;;
18711;SDS011;9485;49.386;8.674;2022-12-07T20:25:31;16.83;;;11.40;;
18711;SDS011;9485;49.386;8.674;2022-12-07T20:30:54;19.60;;;11.63;;
18711;SDS011;9485;49.386;8.674;2022-12-07T20:36:15;20.33;;;12.30;;
18711;SDS011;9485;49.386;8.674;2022-12-07T20:41:39;16.50;;;11.40;;
18711;SDS011;9485;49.386;8.674;2022-12-07T20:47:17;16.13;;;11.33;;
18711;SDS011;9485;49.386;8.674;2022-12-07T20:52:38;15.63;;;10.93;;
18711;SDS011;9485;49.386;8.674;2022-12-07T20:58:00;21.30;;;12.53;;
18711;SDS011;9485;49.386;8.674;2022-12-07T21:03:21;18.20;;;11.43;;
18711;SDS011;9485;49.386;8.674;2022-12-07T21:08:42;19.57;;;12.57;;
18711;SDS011;9485;49.386;8.674;2022-12-07T21:14:05;16.23;;;10.67;;
18711;SDS011;9485;49.386;8.674;2022-12-07T21:19:27;17.53;;;10.97;;
18711;SDS011;9485;49.386;8.674;2022-12-07T21:24:48;18.13;;;10.97;;
18711;SDS011;9485;49.386;8.674;2022-12-07T21:30:11;18.50;;;11.47;;
18711;SDS011;9485;49.386;8.674;2022-12-07T21:35:32;16.57;;;11.40;;
18711;SDS011;9485;49.386;8.674;2022-12-07T21:40:52;16.77;;;11.03;;
18711;SDS011;9485;49.386;8.674;2022-12-07T21:46:14;17.23;;;10.87;;
18711;SDS011;9485;49.386;8.674;2022-12-07T21:51:37;20.57;;;12.17;;
18711;SDS011;9485;49.386;8.674;2022-12-07T21:56:58;18.23;;;12.40;;
18711;SDS011;9485;49.386;8.674;2022-12-07T22:02:20;16.20;;;11.03;;
18711;SDS011;9485;49.386;8.674;2022-12-07T22:07:41;18.67;;;11.63;;
18711;SDS011;9485;49.386;8.674;2022-12-07T22:13:01;17.10;;;11.07;;
18711;SDS011;9485;49.386;8.674;2022-12-07T22:18:23;16.90;;;12.03;;
18711;SDS011;9485;49.386;8.674;2022-12-07T22:23:45;19.77;;;10.97;;
18711;SDS011;9485;49.386;8.674;2022-12-07T22:29:05;16.67;;;10.90;;
18711;SDS011;9485;49.386;8.674;2022-12-07T22:34:28;16.30;;;10.47;;
18711;SDS011;9485;49.386;8.674;2022-12-07T22:39:48;16.00;;;10.53;;
18711;SDS011;9485;49.386;8.674;2022-12-07T22:45:09;16.67;;;10.63;;
18711;SDS011;9485;49.386;8.674;2022-12-07T22:50:33;15.83;;;10.73;;
18711;SDS011;9485;49.386;8.674;2022-12-07T22:55:56;17.53;;;11.73;;
18711;SDS011;9485;49.386;8.674;2022-12-07T23:01:17;18.77;;;12.30;;
18711;SDS011;9485;49.386;8.674;2022-12-07T23:06:40;17.50;;;12.30;;
18711;SDS011;9485;49.386;8.674;2022-12-07T23:12:01;17.07;;;11.57;;
18711;SDS011;9485;49.386;8.674;2022-12-07T23:17:39;17.73;;;11.47;;
18711;SDS011;9485;49.386;8.674;2022-12-07T23:23:01;21.27;;;12.70;;
18711;SDS011;9485;49.386;8.674;2022-12-07T23:28:22;18.60;;;11.37;;
18711;SDS011;9485;49.386;8.674;2022-12-07T23:33:43;17.63;;;10.87;;
18711;SDS011;9485;49.386;8.674;2022-12-07T23:39:06;19.60;;;11.80;;
18711;SDS011;9485;49.386;8.674;2022-12-07T23:44:28;18.70;;;11.30;;
18711;SDS011;9485;49.386;8.674;2022-12-07T23:49:48;18.73;;;11.97;;
18711;SDS011;9485;49.386;8.674;2022-12-07T23:55:10;18.83;;;12.33;;
